createdAt,value
2017-12-15T00:00:45.158Z,6.73
2017-12-15T00:03:15.200Z,6.81
2017-12-15T00:05:45.747Z,6.81
2017-12-15T00:08:21.738Z,6.75
2017-12-15T00:10:52.041Z,7.01
2017-12-15T00:13:22.831Z,7.08
2017-12-15T00:15:53.517Z,7.20
2017-12-15T00:18:24.072Z,7.17
2017-12-15T00:20:54.301Z,7.07
2017-12-15T00:23:26.410Z,7.27
2017-12-15T00:25:56.658Z,7.19
2017-12-15T00:28:27.030Z,7.07
2017-12-15T00:30:57.310Z,6.96
2017-12-15T00:33:28.112Z,6.95
2017-12-15T00:35:58.401Z,6.93
2017-12-15T00:38:29.668Z,6.90
2017-12-15T00:41:00.310Z,6.79
2017-12-15T00:43:31.817Z,6.91
2017-12-15T00:46:02.523Z,6.69
2017-12-15T00:48:36.986Z,6.67
2017-12-15T00:51:07.228Z,6.64
2017-12-15T00:53:37.962Z,6.66
2017-12-15T00:56:11.855Z,6.58
2017-12-15T00:58:42.573Z,6.37
2017-12-15T01:01:12.915Z,6.31
2017-12-15T01:03:43.343Z,6.33
2017-12-15T01:06:14.177Z,6.45
2017-12-15T01:08:44.557Z,6.33
2017-12-15T01:11:14.843Z,6.36
2017-12-15T01:13:45.583Z,6.58
2017-12-15T01:16:17.565Z,6.49
2017-12-15T01:18:48.275Z,6.49
2017-12-15T01:21:19.481Z,6.48
2017-12-15T01:23:51.456Z,6.30
2017-12-15T01:26:22.710Z,6.39
2017-12-15T01:28:53.070Z,6.36
2017-12-15T01:31:23.441Z,6.45
2017-12-15T01:33:54.241Z,6.42
2017-12-15T01:36:24.658Z,6.31
2017-12-15T01:38:55.002Z,6.33
2017-12-15T01:41:25.612Z,6.46
2017-12-15T01:43:56.850Z,6.52
2017-12-15T01:46:27.235Z,6.56
2017-12-15T01:48:57.437Z,6.73
2017-12-15T01:51:28.694Z,6.72
2017-12-15T01:53:59.199Z,6.63
2017-12-15T01:56:30.606Z,6.62
2017-12-15T01:59:00.822Z,6.75
2017-12-15T02:01:32.082Z,6.72
2017-12-15T02:04:02.494Z,6.69
2017-12-15T02:06:32.842Z,6.80
2017-12-15T02:09:04.035Z,6.78
2017-12-15T02:11:34.537Z,6.76
2017-12-15T02:14:04.963Z,6.65
2017-12-15T02:16:35.732Z,6.73
2017-12-15T02:19:05.923Z,6.53
2017-12-15T02:21:36.628Z,6.48
2017-12-15T02:24:06.941Z,6.48
2017-12-15T02:26:37.354Z,6.57
2017-12-15T02:29:08.218Z,6.78
2017-12-15T02:31:38.536Z,6.73
2017-12-15T02:34:08.830Z,6.48
2017-12-15T02:36:39.501Z,6.53
2017-12-15T02:39:09.733Z,6.44
2017-12-15T02:44:44.645Z,6.49
2017-12-15T02:47:15.083Z,6.52
2017-12-15T02:49:45.613Z,6.59
2017-12-15T02:52:16.055Z,6.56
2017-12-15T02:54:46.455Z,6.66
2017-12-15T02:57:17.141Z,6.70
2017-12-15T02:59:48.141Z,6.81
2017-12-15T03:02:19.060Z,6.78
2017-12-15T03:04:50.509Z,6.85
2017-12-15T03:07:21.545Z,6.84
2017-12-15T03:09:51.826Z,6.85
2017-12-15T03:12:23.041Z,6.72
2017-12-15T03:14:53.636Z,6.68
2017-12-15T03:17:23.897Z,6.58
2017-12-15T03:19:55.400Z,6.38
2017-12-15T03:22:26.646Z,6.69
2017-12-15T03:24:57.605Z,6.44
2017-12-15T03:27:28.725Z,6.56
2017-12-15T03:29:59.107Z,6.60
2017-12-15T03:32:31.753Z,6.66
2017-12-15T03:35:02.104Z,6.56
2017-12-15T03:40:29.978Z,6.73
2017-12-15T03:43:00.294Z,6.79
2017-12-15T03:45:31.776Z,6.98
2017-12-15T03:48:07.086Z,6.74
2017-12-15T03:50:37.223Z,6.66
2017-12-15T03:53:11.775Z,6.74
2017-12-15T03:55:41.981Z,6.90
2017-12-15T03:58:13.308Z,6.99
2017-12-15T04:00:43.837Z,6.81
2017-12-15T04:03:14.172Z,6.97
2017-12-15T04:05:44.217Z,6.87
2017-12-15T04:08:14.813Z,7.07
2017-12-15T04:10:45.111Z,7.11
2017-12-15T04:13:15.286Z,6.91
2017-12-15T04:15:46.080Z,7.01
2017-12-15T04:18:16.366Z,7.18
2017-12-15T04:20:46.531Z,7.11
2017-12-15T04:23:16.889Z,7.25
2017-12-15T04:25:47.019Z,7.31
2017-12-15T04:28:17.224Z,7.03
2017-12-15T04:30:47.461Z,7.17
2017-12-15T04:33:17.532Z,6.89
2017-12-15T04:35:48.030Z,6.85
2017-12-15T04:38:18.273Z,7.00
2017-12-15T04:40:48.672Z,7.23
2017-12-15T04:43:19.998Z,7.38
2017-12-15T04:45:50.186Z,7.32
2017-12-15T04:48:20.818Z,7.16
2017-12-15T04:50:51.554Z,7.27
2017-12-15T04:53:22.535Z,7.22
2017-12-15T04:55:52.896Z,7.16
2017-12-15T04:58:23.496Z,7.32
2017-12-15T05:00:54.351Z,7.37
2017-12-15T05:03:24.476Z,6.97
2017-12-15T05:05:54.940Z,7.23
2017-12-15T05:08:24.966Z,7.12
2017-12-15T05:10:55.063Z,7.20
2017-12-15T05:13:25.326Z,7.03
2017-12-15T05:15:55.534Z,7.32
2017-12-15T05:18:25.767Z,7.22
2017-12-15T05:20:56.839Z,7.03
2017-12-15T05:23:27.106Z,7.04
2017-12-15T05:25:57.401Z,7.09
2017-12-15T05:28:28.163Z,6.92
2017-12-15T05:30:58.293Z,7.17
2017-12-15T05:33:30.352Z,6.73
2017-12-15T05:36:01.385Z,6.41
2017-12-15T05:38:33.211Z,6.52
2017-12-15T05:41:06.513Z,6.83
2017-12-15T05:43:37.511Z,7.11
2017-12-15T05:46:07.778Z,6.99
2017-12-15T05:48:38.886Z,7.02
2017-12-15T05:51:09.265Z,6.97
2017-12-15T05:53:39.632Z,6.49
2017-12-15T05:56:10.088Z,6.53
2017-12-15T05:58:41.677Z,6.76
2017-12-15T06:01:12.189Z,6.66
2017-12-15T06:03:42.312Z,7.01
2017-12-15T06:06:13.135Z,7.29
2017-12-15T06:08:43.396Z,7.07
2017-12-15T06:11:13.752Z,7.43
2017-12-15T06:13:44.032Z,7.34
2017-12-15T06:16:14.181Z,7.01
2017-12-15T06:18:44.343Z,6.89
2017-12-15T06:21:14.730Z,6.75
2017-12-15T06:23:44.819Z,7.34
2017-12-15T06:26:15.290Z,6.85
2017-12-15T06:28:46.294Z,6.91
2017-12-15T06:31:16.911Z,6.73
2017-12-15T06:33:47.399Z,6.87
2017-12-15T06:36:17.983Z,6.81
2017-12-15T06:38:49.824Z,6.85
2017-12-15T06:41:20.658Z,7.22
2017-12-15T06:43:50.901Z,7.38
2017-12-15T06:46:21.847Z,7.27
2017-12-15T06:48:52.529Z,7.12
2017-12-15T06:51:23.466Z,7.24
2017-12-15T06:53:56.210Z,7.22
2017-12-15T06:56:54.064Z,7.01
2017-12-15T06:59:25.458Z,7.15
2017-12-15T07:01:55.870Z,7.45
2017-12-15T07:04:28.073Z,7.60
2017-12-15T07:06:58.920Z,7.64
2017-12-15T07:09:29.647Z,7.57
2017-12-15T07:11:59.756Z,7.74
2017-12-15T07:14:31.564Z,7.80
2017-12-15T07:17:02.140Z,7.77
2017-12-15T07:19:39.336Z,7.62
2017-12-15T07:22:09.604Z,7.46
2017-12-15T07:24:42.059Z,7.53
2017-12-15T07:27:22.802Z,7.38
2017-12-15T07:29:52.932Z,7.50
2017-12-15T07:32:24.091Z,7.40
2017-12-15T07:34:57.313Z,7.88
2017-12-15T07:37:51.362Z,8.19
2017-12-15T07:40:22.499Z,8.13
2017-12-15T07:45:20.026Z,7.50
2017-12-15T07:47:51.961Z,7.86
2017-12-15T07:50:23.251Z,8.04
2017-12-15T07:53:08.504Z,8.16
2017-12-15T07:55:43.536Z,8.19
2017-12-15T07:58:14.289Z,8.17
2017-12-15T08:00:47.169Z,7.86
2017-12-15T08:03:17.664Z,7.63
2017-12-15T08:05:49.126Z,7.76
2017-12-15T08:08:19.712Z,7.61
2017-12-15T08:10:50.278Z,7.54
2017-12-15T08:13:21.212Z,7.67
2017-12-15T08:15:52.263Z,7.85
2017-12-15T08:18:24.989Z,7.81
2017-12-15T08:20:57.367Z,7.24
2017-12-15T08:23:27.682Z,7.18
2017-12-15T08:25:58.272Z,7.29
2017-12-15T08:28:33.258Z,7.77
2017-12-15T08:31:03.921Z,7.98
2017-12-15T08:33:35.054Z,8.04
2017-12-15T08:36:07.072Z,8.03
2017-12-15T08:38:39.040Z,7.94
2017-12-15T08:44:13.464Z,8.19
2017-12-15T08:46:44.325Z,8.24
2017-12-15T08:49:14.838Z,7.91
2017-12-15T08:51:45.908Z,7.91
2017-12-15T08:54:16.137Z,8.06
2017-12-15T08:56:46.832Z,8.15
2017-12-15T08:59:17.612Z,7.94
2017-12-15T09:01:48.717Z,7.92
2017-12-15T09:04:25.949Z,7.96
2017-12-15T09:06:57.216Z,7.93
2017-12-15T09:09:28.584Z,7.87
2017-12-15T09:11:59.650Z,7.88
2017-12-15T09:14:31.235Z,7.85
2017-12-15T09:17:02.206Z,7.84
2017-12-15T09:19:33.153Z,7.87
2017-12-15T09:22:03.413Z,7.79
2017-12-15T09:24:34.196Z,7.79
2017-12-15T09:27:05.244Z,7.72
2017-12-15T09:29:35.898Z,7.83
2017-12-15T09:32:06.354Z,7.94
2017-12-15T09:34:37.659Z,7.90
2017-12-15T09:37:10.859Z,8.19
2017-12-15T09:39:41.732Z,8.32
2017-12-15T09:42:12.446Z,7.81
2017-12-15T09:44:43.895Z,8.41
2017-12-15T09:47:14.542Z,8.46
2017-12-15T09:49:49.227Z,8.85
2017-12-15T09:52:36.145Z,9.17
2017-12-15T09:55:14.515Z,9.20
2017-12-15T09:57:50.782Z,9.08
2017-12-15T10:00:29.406Z,9.21
2017-12-15T10:03:12.253Z,9.31
2017-12-15T10:05:43.102Z,9.31
2017-12-15T10:08:20.355Z,9.26
2017-12-15T10:10:52.144Z,9.42
2017-12-15T10:13:24.186Z,9.33
2017-12-15T10:15:57.220Z,9.34
2017-12-15T10:18:28.791Z,9.20
2017-12-15T10:21:01.115Z,9.10
2017-12-15T10:23:40.069Z,9.04
2017-12-15T10:26:13.446Z,8.96
2017-12-15T10:28:47.493Z,8.95
2017-12-15T10:31:18.227Z,9.20
2017-12-15T10:33:49.256Z,9.02
2017-12-15T10:36:20.468Z,8.95
2017-12-15T10:38:50.905Z,9.03
2017-12-15T10:41:21.248Z,8.87
2017-12-15T10:43:52.275Z,8.86
2017-12-15T10:46:24.528Z,8.79
2017-12-15T10:48:57.196Z,8.77
2017-12-15T10:51:29.887Z,9.05
2017-12-15T10:54:10.113Z,9.01
2017-12-15T10:56:41.031Z,8.66
2017-12-15T10:59:11.401Z,8.08
2017-12-15T11:01:43.491Z,7.65
2017-12-15T11:04:15.416Z,7.69
2017-12-15T11:06:46.327Z,7.77
2017-12-15T11:09:32.872Z,8.36
2017-12-15T11:12:13.453Z,8.05
2017-12-15T11:14:44.252Z,7.75
2017-12-15T11:17:15.265Z,7.52
2017-12-15T11:19:45.766Z,7.71
2017-12-15T11:22:16.055Z,7.99
2017-12-15T11:24:47.471Z,7.97
2017-12-15T11:27:23.209Z,7.91
2017-12-15T11:29:54.995Z,7.99
2017-12-15T11:32:28.205Z,7.96
2017-12-15T11:35:14.157Z,7.88
2017-12-15T11:37:51.383Z,7.74
2017-12-15T11:40:22.728Z,7.59
2017-12-15T11:42:56.116Z,8.13
2017-12-15T11:45:26.754Z,7.91
2017-12-15T11:47:57.126Z,8.42
2017-12-15T11:50:33.122Z,8.24
2017-12-15T11:53:04.223Z,7.85
2017-12-15T11:55:35.289Z,8.17
2017-12-15T11:58:08.166Z,8.27
2017-12-15T12:00:39.547Z,8.17
2017-12-15T12:03:10.424Z,8.43
2017-12-15T12:05:52.288Z,8.34
2017-12-15T12:08:24.857Z,8.46
2017-12-15T12:10:56.424Z,8.69
2017-12-15T12:13:28.181Z,8.79
2017-12-15T12:16:14.322Z,8.80
2017-12-15T12:18:46.106Z,8.85
2017-12-15T12:21:19.940Z,8.85
2017-12-15T12:23:56.616Z,9.13
2017-12-15T12:26:28.076Z,8.81
2017-12-15T12:29:00.487Z,8.76
2017-12-15T12:31:31.916Z,8.70
2017-12-15T12:34:07.078Z,8.70
2017-12-15T12:36:40.600Z,9.05
2017-12-15T12:39:19.571Z,9.01
2017-12-15T12:41:56.139Z,9.04
2017-12-15T12:44:30.764Z,8.56
2017-12-15T12:47:07.795Z,7.99
2017-12-15T12:49:39.358Z,8.14
2017-12-15T12:52:10.847Z,8.26
2017-12-15T12:54:43.250Z,8.10
2017-12-15T12:57:14.228Z,8.37
2017-12-15T12:59:48.339Z,8.54
2017-12-15T13:02:33.262Z,7.67
2017-12-15T13:05:05.003Z,7.66
2017-12-15T13:07:38.533Z,7.91
2017-12-15T13:10:11.120Z,8.29
2017-12-15T13:12:44.211Z,7.95
2017-12-15T13:15:19.166Z,7.92
2017-12-15T13:17:52.307Z,8.04
2017-12-15T13:20:23.667Z,8.38
2017-12-15T13:22:54.994Z,8.60
2017-12-15T13:25:26.654Z,8.56
2017-12-15T13:27:57.512Z,8.29
2017-12-15T13:30:28.785Z,8.40
2017-12-15T13:32:59.245Z,8.65
2017-12-15T13:35:29.906Z,8.75
2017-12-15T13:38:03.219Z,8.40
2017-12-15T13:40:35.419Z,8.39
2017-12-15T13:43:06.271Z,8.67
2017-12-15T13:45:37.491Z,8.90
2017-12-15T13:48:07.919Z,8.90
2017-12-15T13:50:39.169Z,9.04
2017-12-15T13:53:09.503Z,8.81
2017-12-15T13:55:40.067Z,8.54
2017-12-15T13:58:14.844Z,8.65
2017-12-15T14:00:54.073Z,8.54
2017-12-15T14:03:31.944Z,8.36
2017-12-15T14:06:05.892Z,8.47
2017-12-15T14:08:41.119Z,8.57
2017-12-15T14:11:15.339Z,8.92
2017-12-15T14:13:47.498Z,8.28
2017-12-15T14:16:19.536Z,8.49
2017-12-15T14:18:53.218Z,8.61
2017-12-15T14:21:27.903Z,8.75
2017-12-15T14:23:58.412Z,8.82
2017-12-15T14:26:30.587Z,8.61
2017-12-15T14:29:01.081Z,8.67
2017-12-15T14:31:39.212Z,8.54
2017-12-15T14:34:10.232Z,8.46
2017-12-15T14:36:40.934Z,8.69
2017-12-15T14:39:11.473Z,8.82
2017-12-15T14:41:42.360Z,9.10
2017-12-15T14:44:14.690Z,9.05
2017-12-15T14:46:45.539Z,9.01
2017-12-15T14:49:17.544Z,8.93
2017-12-15T14:51:48.120Z,8.91
2017-12-15T14:54:21.669Z,9.00
2017-12-15T14:56:52.448Z,8.81
2017-12-15T14:59:31.158Z,8.69
2017-12-15T15:02:06.182Z,8.54
2017-12-15T15:04:40.485Z,8.57
2017-12-15T15:07:15.552Z,8.63
2017-12-15T15:09:53.681Z,8.86
2017-12-15T15:12:24.889Z,8.83
2017-12-15T15:14:56.051Z,8.68
2017-12-15T15:17:27.090Z,8.73
2017-12-15T15:19:59.094Z,8.58
2017-12-15T15:22:30.633Z,8.51
2017-12-15T15:25:01.057Z,8.50
2017-12-15T15:27:34.808Z,8.48
2017-12-15T15:32:54.000Z,8.57
2017-12-15T15:35:26.744Z,8.37
2017-12-15T15:37:59.269Z,8.38
2017-12-15T15:40:30.869Z,8.35
2017-12-15T15:43:05.663Z,8.39
2017-12-15T15:45:36.943Z,8.37
2017-12-15T15:48:08.881Z,8.36
2017-12-15T15:50:40.706Z,8.57
2017-12-15T15:53:14.589Z,8.74
2017-12-15T15:55:58.527Z,8.87
2017-12-15T15:58:33.322Z,8.91
2017-12-15T16:01:04.293Z,8.91
2017-12-15T16:03:35.032Z,8.99
2017-12-15T16:06:05.904Z,8.84
2017-12-15T16:08:37.330Z,8.87
2017-12-15T16:11:08.525Z,9.11
2017-12-15T16:13:40.911Z,9.16
2017-12-15T16:16:21.961Z,9.13
2017-12-15T16:18:54.958Z,9.04
2017-12-15T16:21:41.329Z,9.04
2017-12-15T16:24:26.682Z,9.23
2017-12-15T16:26:57.950Z,9.27
2017-12-15T16:29:28.743Z,9.01
2017-12-15T16:32:00.799Z,8.98
2017-12-15T16:34:48.015Z,9.05
2017-12-15T16:37:19.420Z,8.91
2017-12-15T16:39:50.376Z,8.91
2017-12-15T16:42:22.391Z,8.96
2017-12-15T16:44:54.808Z,8.64
2017-12-15T16:47:27.223Z,8.88
2017-12-15T16:49:58.959Z,8.84
2017-12-15T16:52:29.390Z,8.88
2017-12-15T16:55:01.352Z,8.85
2017-12-15T16:57:32.359Z,8.77
2017-12-15T17:00:08.756Z,8.97
2017-12-15T17:02:39.891Z,8.80
2017-12-15T17:05:11.282Z,8.86
2017-12-15T17:07:42.307Z,8.83
2017-12-15T17:10:17.218Z,8.67
2017-12-15T17:12:50.090Z,8.45
2017-12-15T17:15:24.600Z,8.60
2017-12-15T17:17:56.192Z,8.61
2017-12-15T17:20:28.608Z,8.62
2017-12-15T17:23:02.091Z,8.47
2017-12-15T17:25:41.412Z,8.28
2017-12-15T17:28:13.729Z,8.57
2017-12-15T17:30:47.292Z,8.67
2017-12-15T17:33:22.702Z,8.93
2017-12-15T17:35:54.741Z,9.12
2017-12-15T17:38:26.728Z,9.25
2017-12-15T17:40:57.447Z,9.20
2017-12-15T17:43:38.500Z,9.32
2017-12-15T17:46:12.543Z,9.35
2017-12-15T17:48:45.261Z,8.93
2017-12-15T17:51:16.078Z,9.20
2017-12-15T17:53:50.320Z,9.26
2017-12-15T17:56:21.186Z,9.32
2017-12-15T17:58:52.260Z,9.37
2017-12-15T18:01:24.466Z,9.30
2017-12-15T18:03:56.449Z,9.24
2017-12-15T18:06:27.656Z,9.13
2017-12-15T18:08:59.909Z,9.21
2017-12-15T18:11:30.975Z,9.27
2017-12-15T18:14:02.436Z,9.35
2017-12-15T18:16:34.357Z,9.50
2017-12-15T18:19:05.390Z,9.42
2017-12-15T18:21:36.600Z,9.55
2017-12-15T18:24:09.421Z,9.57
2017-12-15T18:26:41.005Z,9.40
2017-12-15T18:29:14.058Z,9.50
2017-12-15T18:31:46.035Z,9.40
2017-12-15T18:34:17.652Z,9.42
2017-12-15T18:36:53.641Z,9.52
2017-12-15T18:39:25.441Z,9.60
2017-12-15T18:42:01.320Z,9.27
2017-12-15T18:44:36.214Z,9.07
2017-12-15T18:47:08.343Z,8.98
2017-12-15T18:49:39.544Z,9.07
2017-12-15T18:52:11.691Z,8.73
2017-12-15T18:54:42.913Z,9.03
2017-12-15T18:57:16.224Z,9.19
2017-12-15T18:59:47.911Z,9.29
2017-12-15T19:02:19.421Z,9.20
2017-12-15T19:04:50.059Z,9.27
2017-12-15T19:07:21.024Z,9.27
2017-12-15T19:09:56.600Z,9.28
2017-12-15T19:12:27.884Z,9.27
2017-12-15T19:15:05.382Z,9.23
2017-12-15T19:17:37.041Z,9.19
2017-12-15T19:20:09.405Z,9.07
2017-12-15T19:22:40.872Z,9.06
2017-12-15T19:25:18.548Z,9.05
2017-12-15T19:27:55.203Z,9.02
2017-12-15T19:30:26.632Z,9.07
2017-12-15T19:33:00.164Z,9.07
2017-12-15T19:35:30.917Z,9.14
2017-12-15T19:38:01.284Z,8.97
2017-12-15T19:40:34.101Z,8.93
2017-12-15T19:43:05.022Z,9.02
2017-12-15T19:45:38.069Z,9.04
2017-12-15T19:48:09.732Z,9.13
2017-12-15T19:50:40.941Z,9.17
2017-12-15T19:53:12.204Z,9.19
2017-12-15T19:55:43.303Z,9.19
2017-12-15T19:58:14.457Z,9.24
2017-12-15T20:00:47.477Z,9.29
2017-12-15T20:03:19.825Z,9.25
2017-12-15T20:05:50.723Z,9.28
2017-12-15T20:08:21.474Z,9.31
2017-12-15T20:10:52.624Z,9.08
2017-12-15T20:13:23.569Z,9.17
2017-12-15T20:15:54.395Z,8.98
2017-12-15T20:18:25.121Z,8.98
2017-12-15T20:20:56.370Z,8.87
2017-12-15T20:23:26.964Z,8.77
2017-12-15T20:25:57.931Z,8.69
2017-12-15T20:28:28.736Z,8.64
2017-12-15T20:31:00.394Z,8.11
2017-12-15T20:33:32.136Z,7.74
2017-12-15T20:36:03.646Z,7.63
2017-12-15T20:38:34.880Z,7.60
2017-12-15T20:41:05.177Z,7.48
2017-12-15T20:43:47.132Z,7.39
2017-12-15T20:46:18.408Z,7.40
2017-12-15T20:48:52.677Z,7.32
2017-12-15T20:51:23.362Z,7.26
2017-12-15T20:53:55.774Z,7.21
2017-12-15T20:56:29.054Z,6.96
2017-12-15T20:59:00.335Z,6.75
2017-12-15T21:01:32.064Z,6.50
2017-12-15T21:04:03.365Z,6.41
2017-12-15T21:06:35.358Z,6.34
2017-12-15T21:09:06.468Z,6.36
2017-12-15T21:11:37.774Z,6.33
2017-12-15T21:14:13.255Z,6.29
2017-12-15T21:16:44.320Z,6.11
2017-12-15T21:19:22.076Z,6.11
2017-12-15T21:21:53.036Z,6.20
2017-12-15T21:24:24.847Z,6.22
2017-12-15T21:26:55.725Z,6.11
2017-12-15T21:29:26.467Z,6.02
2017-12-15T21:31:58.525Z,6.10
2017-12-15T21:34:29.499Z,6.08
2017-12-15T21:37:00.301Z,6.09
2017-12-15T21:39:31.112Z,6.01
2017-12-15T21:42:04.050Z,5.97
2017-12-15T21:44:35.630Z,5.98
2017-12-15T21:47:06.365Z,5.97
2017-12-15T21:49:37.274Z,5.99
2017-12-15T21:52:07.607Z,6.01
2017-12-15T21:54:40.562Z,6.03
2017-12-15T21:57:12.449Z,6.01
2017-12-15T21:59:42.981Z,6.00
2017-12-15T22:02:14.063Z,6.03
2017-12-15T22:04:46.118Z,6.06
2017-12-15T22:07:17.866Z,6.00
2017-12-15T22:09:48.494Z,6.02
2017-12-15T22:12:25.023Z,6.00
2017-12-15T22:14:55.796Z,5.99
2017-12-15T22:17:27.226Z,5.96
2017-12-15T22:19:59.979Z,5.89
2017-12-15T22:22:31.924Z,5.83
2017-12-15T22:25:05.267Z,5.86
2017-12-15T22:27:37.661Z,5.88
2017-12-15T22:30:09.916Z,5.83
2017-12-15T22:32:43.592Z,5.74
2017-12-15T22:35:14.032Z,5.78
2017-12-15T22:37:44.546Z,5.85
2017-12-15T22:40:15.924Z,5.76
2017-12-15T22:42:46.298Z,5.87
2017-12-15T22:45:17.968Z,5.96
2017-12-15T22:47:48.637Z,6.03
2017-12-15T22:50:19.397Z,5.97
2017-12-15T22:52:53.211Z,5.88
2017-12-15T22:55:23.749Z,5.93
2017-12-15T22:57:56.860Z,6.02
2017-12-15T23:00:32.276Z,5.98
2017-12-15T23:03:03.495Z,5.96
2017-12-15T23:05:34.886Z,5.90
2017-12-15T23:08:11.685Z,6.05
2017-12-15T23:10:42.493Z,6.06
2017-12-15T23:13:13.345Z,6.19
2017-12-15T23:15:44.049Z,6.24
2017-12-15T23:18:15.793Z,6.05
2017-12-15T23:20:47.117Z,6.08
2017-12-15T23:23:17.465Z,5.92
2017-12-15T23:25:48.174Z,5.60
2017-12-15T23:28:18.532Z,5.73
2017-12-15T23:30:49.310Z,5.85
2017-12-15T23:33:21.028Z,5.89
2017-12-15T23:35:51.728Z,5.88
2017-12-15T23:38:22.118Z,5.82
2017-12-15T23:40:54.060Z,5.86
2017-12-15T23:43:25.792Z,5.83
2017-12-15T23:45:57.982Z,5.77
2017-12-15T23:48:29.974Z,6.02
2017-12-15T23:51:00.583Z,5.97
2017-12-15T23:53:33.466Z,5.97
2017-12-15T23:57:14.841Z,6.03
2017-12-15T23:59:46.009Z,6.14
